Latest Weather Observations for Point Perpendicular

IDN60801

Issued at 6:05 pm EST Saturday 2 August 2014 (issued every 30 minutes, with the page automatically refreshed every 10 minutes)

About weather observations | Map of weather stations | Latest weather observations for NSW | Other Formats
Station Details ID: 068151 Name: POINT PERPENDICULAR AWS Lat: -35.09 Lon: 150.80 Height: 85.0 m
Data from the previous 72 hours. | See also: Recent months at Point Perpendicular
Date/Time
EST
Temp
°C
App
Temp
°C
Dew
Point
Rel
Hum
%
Delta-T
°C
Wind Press
QNH
hPa
Press
MSL
hPa
Rain
since 9 am
mm
Dir
 
Spd
km/h
Gust
km/h
Spd
kts
Gust
kts
02/06:00pm 12.1 6.8 -0.7 41 5.2 S 17 28 9 15 1028.8 1028.8 0.0
02/05:30pm 12.1 6.0 0.5 45 4.8 S 22 35 12 19 1028.4 - 0.0
02/05:00pm 12.1 6.8 1.7 49 4.4 S 19 33 10 18 1027.9 1027.9 0.0
02/04:30pm 12.2 6.9 2.1 50 4.4 S 19 33 10 18 1027.8 - 0.0
02/04:00pm 12.4 6.5 1.7 48 4.6 S 22 35 12 19 1027.4 1027.4 0.0
02/03:30pm 12.6 5.9 1.6 47 4.7 SSW 26 39 14 21 1026.7 - 0.0
02/03:00pm 12.5 5.7 0.9 45 4.9 S 26 39 14 21 1026.3 1026.3 0.0
02/02:30pm 12.4 5.4 1.7 48 4.6 S 28 46 15 25 1026.0 - 0.0
02/02:09pm 12.1 4.9 0.5 45 4.8 S 28 50 15 27 1025.7 - 0.0
02/02:00pm 12.5 5.0 1.5 47 4.7 SSW 30 44 16 24 1025.6 1025.6 0.0
02/01:30pm 12.7 5.1 2.6 50 4.4 SSW 32 50 17 27 1025.4 - 0.0
02/01:00pm 12.2 4.5 2.1 50 4.3 S 32 50 17 27 1025.0 1025.0 0.0
02/12:49pm 12.0 4.1 1.3 48 4.5 SSW 32 52 17 28 1024.7 - 0.0
02/12:30pm 11.8 4.8 1.7 50 4.3 SSW 28 43 15 23 1025.3 - 0.0
02/12:00pm 11.7 5.1 2.2 52 4.1 SSW 26 46 14 25 1025.6 1025.6 0.0
02/11:52am 11.7 4.6 1.6 50 4.3 SSW 28 46 15 25 1025.6 - 0.0
02/11:30am 11.3 3.7 0.4 47 4.5 SW 30 43 16 23 1025.6 - 0.0
02/11:00am 10.9 3.6 0.3 48 4.3 SSW 28 41 15 22 1025.3 1025.3 0.0
02/10:30am 10.9 4.1 0.9 50 4.2 SSW 26 39 14 21 1025.1 - 0.0
02/10:00am 10.7 3.8 0.2 48 4.3 SW 26 44 14 24 1024.8 1024.8 0.0
02/09:30am 10.1 4.5 1.0 53 3.8 WSW 20 28 11 15 1024.7 - 0.0
02/09:00am 9.0 3.2 -0.1 53 3.6 WSW 20 32 11 17 1024.3 1024.3 0.0
02/08:30am 8.5 2.8 0.7 58 3.2 WSW 20 32 11 17 1023.8 - 0.0
02/08:00am 8.0 2.6 1.0 61 2.8 W 19 28 10 15 1023.1 1023.1 0.0
02/07:30am 7.7 2.6 0.9 62 2.7 W 17 30 9 16 1022.2 - 0.0
02/07:00am 7.9 2.5 1.3 63 2.7 W 19 28 10 15 1021.4 1021.4 0.0
02/06:30am 8.0 2.4 1.0 61 2.8 W 20 33 11 18 1020.9 - 0.0
02/06:00am 8.1 2.5 1.0 61 2.9 W 20 32 11 17 1020.2 1020.2 0.0
02/05:30am 8.1 2.6 0.8 60 2.9 W 19 30 10 16 1019.5 - 0.0
02/05:00am 8.2 2.6 0.9 60 2.9 W 20 32 11 17 1019.1 1019.1 0.0
02/04:30am 8.6 2.6 1.1 59 3.1 W 22 33 12 18 1018.4 - 0.0
02/04:00am 8.7 2.3 1.1 59 3.1 W 24 35 13 19 1017.7 1017.7 0.0
02/03:30am 8.8 2.4 1.2 59 3.1 W 24 43 13 23 1017.4 - 0.0
02/03:00am 8.8 3.4 1.2 59 3.1 W 19 28 10 15 1017.1 1017.1 0.0
02/02:30am 8.6 2.6 1.1 59 3.1 W 22 33 12 18 1016.4 - 0.0
02/02:00am 8.8 3.5 1.7 61 2.9 WNW 19 32 10 17 1016.3 1016.3 0.0
02/01:30am 8.7 2.7 0.9 58 3.2 WNW 22 33 12 18 1016.0 - 0.0
02/01:00am 8.9 3.3 0.9 57 3.3 WNW 20 33 11 18 1015.6 1015.6 0.0
02/12:30am 8.8 2.8 1.0 58 3.2 WNW 22 32 12 17 1015.6 - 0.0
02/12:00am 8.9 2.6 1.3 59 3.1 W 24 33 13 18 1015.2 1015.2 0.0
 
Date/Time
EST
Temp
°C
App
Temp
°C
Dew
Point
Rel
Hum
%
Delta-T
°C
Wind Press
QNH
hPa
Press
MSL
hPa
Rain
since 9 am
mm
Dir
 
Spd
km/h
Gust
km/h
Spd
kts
Gust
kts
01/11:30pm 8.9 2.9 1.1 58 3.2 WNW 22 35 12 19 1014.7 - 0.0
01/11:00pm 8.7 2.8 1.8 62 2.9 WNW 22 33 12 18 1014.5 1014.5 0.0
01/10:30pm 8.9 2.6 1.6 60 3.0 WNW 24 41 13 22 1014.3 - 0.0
01/10:00pm 9.4 4.0 1.1 56 3.4 W 19 26 10 14 1014.2 1014.2 0.0
01/09:30pm 9.4 3.7 0.3 53 3.7 W 20 32 11 17 1013.7 - 0.0
01/09:00pm 9.6 3.5 0.5 53 3.7 W 22 33 12 18 1013.3 1013.2 0.0
01/08:30pm 9.6 3.3 1.3 56 3.4 W 24 32 13 17 1012.5 - 0.0
01/08:00pm 9.6 3.1 0.2 52 3.8 W 24 41 13 22 1012.0 1011.9 0.0
01/07:43pm 9.9 2.5 1.8 57 3.4 W 30 48 16 26 1012.5 - 0.0
01/07:30pm 9.6 4.1 0.8 54 3.6 W 19 30 10 16 1012.0 - 0.0
01/07:00pm 9.9 4.0 1.8 57 3.4 WNW 22 32 12 17 1011.7 1011.6 0.0
01/06:30pm 10.5 5.5 1.1 52 3.9 W 17 30 9 16 1011.0 - 0.0
01/06:00pm 11.2 5.7 0.3 47 4.5 W 19 32 10 17 1010.9 1010.9 0.0
01/05:30pm 11.2 5.7 0.3 47 4.5 WNW 19 28 10 15 1009.6 - 0.0
01/05:00pm 11.6 5.5 0.7 47 4.6 W 22 39 12 21 1009.2 1009.2 0.0
01/04:30pm 11.9 4.2 -0.3 43 5.0 W 30 54 16 29 1007.8 - 0.0
01/04:00pm 12.7 4.6 1.1 45 4.9 W 33 54 18 29 1007.5 1007.5 0.0
01/03:30pm 12.7 5.5 0.5 43 5.1 W 28 50 15 27 1006.5 - 0.0
01/03:00pm 13.1 5.0 0.8 43 5.2 W 33 57 18 31 1006.4 1006.4 0.0
01/02:31pm 13.5 4.7 -1.3 36 6.0 W 35 54 19 29 1005.9 - 0.0
01/02:30pm 13.4 4.2 -1.0 37 5.9 W 37 54 20 29 1005.8 - 0.0
01/02:00pm 13.5 4.8 -0.2 39 5.7 W 35 57 19 31 1005.4 1005.4 0.0
01/01:30pm 13.3 4.7 0.3 41 5.5 W 35 54 19 29 1005.2 - 0.0
01/01:00pm 13.3 5.4 -1.8 35 6.1 WNW 30 50 16 27 1005.3 1005.3 0.0
01/12:30pm 13.2 4.7 -3.1 32 6.3 WNW 32 50 17 27 1004.6 - 0.0
01/12:05pm 13.3 5.4 -1.4 36 5.9 WNW 30 48 16 26 1005.1 - 0.0
01/12:00pm 13.3 5.5 -0.7 38 5.8 WNW 30 43 16 23 1005.6 1005.6 0.0
01/11:34am 13.2 5.5 -0.4 39 5.6 WNW 30 48 16 26 1006.3 - 0.0
01/11:30am 13.1 5.2 -1.2 37 5.8 WNW 30 46 16 25 1006.3 - 0.0
01/11:00am 12.9 4.9 -2.2 35 6.0 W 30 48 16 26 1006.8 1006.8 0.0
01/10:41am 13.1 5.7 -0.5 39 5.6 WNW 28 46 15 25 1006.9 - 0.0
01/10:30am 13.0 5.6 -0.6 39 5.6 W 28 43 15 23 1007.1 - 0.0
01/10:00am 12.7 5.6 1.4 46 4.9 W 28 41 15 22 1007.1 1007.1 0.0
01/09:30am 12.6 6.2 1.0 45 4.9 W 24 39 13 21 1007.2 - 0.0
01/09:00am 12.5 6.1 1.2 46 4.8 WNW 24 41 13 22 1007.0 1007.0 0.0
01/08:30am 13.2 7.4 2.4 48 4.7 WNW 22 35 12 19 1006.6 - 0.0
01/08:00am 13.1 9.0 2.1 47 4.8 NW 13 17 7 9 1006.7 1006.7 0.0
01/07:30am 13.0 7.1 2.0 47 4.8 W 22 35 12 19 1006.2 - 0.0
01/07:00am 12.8 8.0 4.8 58 3.7 WNW 19 30 10 16 1006.0 1006.0 0.0
01/06:30am 13.2 8.3 5.1 58 3.8 NW 20 32 11 17 1005.4 - 0.0
01/06:00am 13.9 9.2 5.0 55 4.2 NW 19 32 10 17 1004.6 1004.6 0.0
01/05:30am 14.7 9.4 5.0 52 4.6 WNW 22 35 12 19 1004.3 - 0.0
01/05:00am 15.2 9.8 4.6 49 5.0 WNW 22 39 12 21 1003.5 1003.5 0.0
01/04:30am 16.1 8.9 3.2 42 5.9 WNW 30 43 16 23 1003.1 - 0.0
01/04:03am 17.7 10.7 2.1 35 7.1 WNW 28 46 15 25 1002.6 - 0.0
01/04:00am 17.8 10.5 0.0 30 7.8 WNW 28 39 15 21 1002.5 1002.5 0.0
01/03:30am 18.8 13.0 -1.6 25 8.7 WNW 19 32 10 17 1002.5 - 0.0
01/03:00am 19.0 13.2 -0.4 27 8.5 NW 20 33 11 18 1002.4 1002.4 0.0
01/02:30am 18.7 12.7 -1.2 26 8.5 NNW 20 33 11 18 1002.1 - 0.0
01/02:00am 19.0 12.4 -3.2 22 9.2 NNW 22 33 12 18 1002.1 1002.1 0.0
01/01:30am 19.5 12.8 -4.0 20 9.6 NNW 22 43 12 23 1002.1 - 0.0
01/01:00am 19.4 12.4 -3.5 21 9.5 NNW 24 43 13 23 1002.3 1002.3 0.0
01/12:30am 19.6 13.4 -3.3 21 9.5 NNW 20 33 11 18 1002.7 - 0.0
01/12:00am 19.4 12.2 -2.2 23 9.2 NNW 26 43 14 23 1003.2 1003.2 0.0
 
Date/Time
EST
Temp
°C
App
Temp
°C
Dew
Point
Rel
Hum
%
Delta-T
°C
Wind Press
QNH
hPa
Press
MSL
hPa
Rain
since 9 am
mm
Dir
 
Spd
km/h
Gust
km/h
Spd
kts
Gust
kts
31/11:30pm 19.7 12.9 -2.0 23 9.2 NNW 24 44 13 24 1003.5 - 0.0
31/11:00pm 19.5 14.5 -1.0 25 8.9 NNW 15 24 8 13 1003.9 1003.9 0.0
31/10:30pm 18.4 13.4 -0.9 27 8.3 N 15 24 8 13 1004.2 - 0.0
31/10:00pm 19.0 13.8 0.1 28 8.4 NNW 17 30 9 16 1004.1 1004.1 0.0
31/09:30pm 18.9 13.3 0.0 28 8.3 NNW 19 35 10 19 1004.0 - 0.0
31/09:00pm 18.7 13.8 -0.2 28 8.3 N 15 22 8 12 1003.7 1003.7 0.0
31/08:30pm 18.7 13.0 -0.7 27 8.4 N 19 28 10 15 1003.5 - 0.0
31/08:00pm 18.6 12.5 0.2 29 8.1 N 22 35 12 19 1003.2 1003.2 0.0
31/07:30pm 19.3 13.9 -1.2 25 8.8 N 17 28 9 15 1003.2 - 0.0
31/07:00pm 19.5 14.4 -2.2 23 9.2 N 15 24 8 13 1003.5 1003.5 0.0
31/06:30pm 20.3 15.7 -0.9 24 9.3 NNW 13 20 7 11 1003.6 - 0.0
31/06:00pm 20.5 13.8 -1.3 23 9.5 NNW 24 43 13 23 1003.4 1003.4 0.0
31/05:30pm 20.9 13.8 -1.6 22 9.7 NNW 26 43 14 23 1003.3 - 0.0
31/05:00pm 21.2 14.5 -1.3 22 9.9 NNW 24 35 13 19 1003.2 1003.2 0.0
31/04:30pm 21.4 14.9 0.6 25 9.4 NNW 24 43 13 23 1003.5 - 0.0
31/04:00pm 22.2 16.1 0.1 23 10.0 NNW 22 43 12 23 1003.4 1003.4 0.0
31/03:30pm 22.5 14.2 -0.3 22 10.3 NNW 33 65 18 35 1003.5 - 0.0
31/03:16pm 23.1 15.9 0.9 23 10.3 NNW 28 48 15 26 1004.1 - 0.0
31/03:00pm 22.5 15.3 0.9 24 10.0 NNW 28 44 15 24 1004.0 1004.0 0.0
31/02:30pm 22.7 15.2 -1.4 20 10.6 NW 28 43 15 23 1004.5 - 0.0
31/02:00pm 22.9 15.7 0.7 23 10.3 NW 28 41 15 22 1004.9 1004.9 0.0
31/01:30pm 22.7 15.6 1.1 24 10.0 NW 28 43 15 23 1005.4 - 0.0
31/01:00pm 22.8 15.8 1.8 25 9.9 NW 28 52 15 28 1006.1 1006.1 0.0
31/12:34pm 22.4 15.4 2.0 26 9.6 NNW 28 46 15 25 1006.8 - 0.0
31/12:30pm 22.4 15.5 0.3 23 10.1 NNW 26 39 14 21 1006.7 - 0.0
31/12:00pm 22.0 15.8 2.2 27 9.3 NNW 24 35 13 19 1007.9 1007.9 0.0
31/11:30am 21.8 15.9 3.9 31 8.7 NNW 24 39 13 21 1008.9 - 0.0
31/11:00am 21.1 15.0 4.6 34 8.1 NNW 26 41 14 22 1009.6 1009.6 0.0
31/10:30am 20.2 13.5 3.9 34 7.8 NNW 28 48 15 26 1010.3 - 0.0
31/10:28am 20.2 13.5 3.9 34 7.8 NNW 28 48 15 26 1010.3 - 0.0
31/10:00am 19.6 13.7 4.1 36 7.4 NNW 24 43 13 23 1010.7 1010.8 0.0
31/09:30am 19.2 14.3 5.3 40 6.8 NNW 20 30 11 16 1011.4 - 0.0
31/09:00am 18.2 13.9 5.1 42 6.3 N 17 26 9 14 1011.8 1011.8 0.0
31/08:30am 17.6 13.6 4.9 43 6.1 N 15 22 8 12 1012.1 - 0.0
31/08:00am 17.1 13.1 4.8 44 5.9 NNW 15 22 8 12 1012.2 1012.2 0.0
31/07:30am 16.5 12.6 5.2 47 5.4 NNW 15 26 8 14 1012.1 - 0.0
31/07:00am 16.2 11.3 5.2 48 5.3 NW 20 28 11 15 1011.9 1011.9 0.0
31/06:35am 16.5 9.4 5.5 48 5.3 WNW 32 50 17 27 1011.7 - 0.0
31/06:30am 16.6 8.6 5.6 48 5.3 WNW 37 52 20 28 1011.4 - 0.0
31/06:00am 17.0 10.4 6.2 49 5.3 WNW 30 48 16 26 1010.1 1010.1 0.0
31/05:57am 17.0 10.7 5.9 48 5.4 NW 28 48 15 26 1010.1 - 0.0
31/05:53am 17.0 10.8 6.2 49 5.3 NW 28 43 15 23 1010.2 - 0.0
31/05:30am 16.3 11.7 6.7 53 4.7 NNW 20 24 11 13 1011.4 - 0.0
31/05:00am 16.8 10.2 6.0 49 5.3 WNW 30 52 16 28 1010.9 1011.0 0.0
31/04:58am 16.9 10.7 6.1 49 5.3 WNW 28 52 15 28 1010.9 - 0.0
31/04:30am 16.4 11.1 6.8 53 4.7 NW 24 39 13 21 1011.7 - 0.0
31/04:00am 16.9 12.6 7.0 52 4.9 WNW 19 32 10 17 1011.7 1011.7 0.0
31/03:30am 16.9 11.3 7.0 52 4.9 WNW 26 41 14 22 1011.8 - 0.0
31/03:19am 17.0 10.9 6.8 51 5.1 WNW 28 43 15 23 1011.8 - 0.0
31/03:00am 17.2 14.8 7.0 51 5.1 N 9 15 5 8 1012.3 1012.3 0.0
31/02:30am 16.3 13.3 7.5 56 4.4 NW 13 24 7 13 1012.9 - 0.0
31/02:00am 16.2 13.1 7.4 56 4.4 NNW 13 17 7 9 1013.1 1013.1 0.0
31/01:30am 15.5 12.8 7.5 59 4.0 N 11 15 6 8 1013.3 - 0.0
31/01:00am 16.0 12.2 7.5 57 4.3 NNW 17 26 9 14 1013.6 1013.6 0.0
31/12:30am 15.3 12.3 7.8 61 3.8 N 13 20 7 11 1013.7 - 0.0
31/12:00am 15.5 12.5 7.8 60 3.9 N 13 17 7 9 1014.1 1014.1 0.0
 
Date/Time
EST
Temp
°C
App
Temp
°C
Dew
Point
Rel
Hum
%
Delta-T
°C
Wind Press
QNH
hPa
Press
MSL
hPa
Rain
since 9 am
mm
Dir
 
Spd
km/h
Gust
km/h
Spd
kts
Gust
kts
30/11:30pm 15.8 12.4 7.8 59 4.0 N 15 22 8 12 1014.3 - 0.0
30/11:00pm 16.1 12.7 7.8 58 4.2 N 15 22 8 12 1014.6 1014.6 0.0
30/10:30pm 16.0 12.4 8.2 60 4.0 NNW 17 24 9 13 1014.8 - 0.0
30/10:00pm 16.1 12.9 8.3 60 4.0 NNW 15 22 8 12 1015.0 1015.0 0.0
30/09:30pm 15.8 13.3 8.3 61 3.8 NNW 11 15 6 8 1015.1 - 0.0
30/09:00pm 16.0 13.5 8.0 59 4.0 N 11 13 6 7 1015.3 1015.3 0.0
30/08:30pm 16.9 14.1 8.6 58 4.3 NW 13 17 7 9 1015.2 - 0.0
30/08:00pm 16.6 14.2 8.8 60 4.0 NNW 11 20 6 11 1015.3 1015.3 0.0
30/07:30pm 17.2 14.4 8.4 56 4.5 NW 13 22 7 12 1015.4 - 0.0
30/07:00pm 17.0 13.8 8.4 57 4.4 NW 15 22 8 12 1015.3 1015.3 0.0
30/06:30pm 17.2 14.7 8.1 55 4.6 WNW 11 15 6 8 1015.3 - 0.0

Other Formats:

Comma delimited format used in spreadsheet applications
http://www.bom.gov.au/fwo/IDN60801/IDN60801.95940.axf

JavaScript Object Notation format (JSON) in row-major order
http://www.bom.gov.au/fwo/IDN60801/IDN60801.95940.json